sensor_id;sensor_type;location;lat;lon;timestamp;pressure;altitude;pressure_sealevel;temperature
65765;BMP180;52915;53.718;19.946;2023-05-19T00:02:35;101684.20;;;9.30
65765;BMP180;52915;53.718;19.946;2023-05-19T00:08:01;101684.80;;;9.30
65765;BMP180;52915;53.718;19.946;2023-05-19T00:13:07;101682.40;;;9.30
65765;BMP180;52915;53.718;19.946;2023-05-19T00:18:19;101684.60;;;9.24
65765;BMP180;52915;53.718;19.946;2023-05-19T00:23:27;101680.20;;;9.20
65765;BMP180;52915;53.718;19.946;2023-05-19T00:28:31;101677.80;;;9.20
65765;BMP180;52915;53.718;19.946;2023-05-19T00:33:35;101675.00;;;9.20
65765;BMP180;52915;53.718;19.946;2023-05-19T00:39:01;101673.60;;;9.20
65765;BMP180;52915;53.718;19.946;2023-05-19T00:44:30;101672.20;;;9.20
65765;BMP180;52915;53.718;19.946;2023-05-19T00:49:58;101658.80;;;9.20
65765;BMP180;52915;53.718;19.946;2023-05-19T01:02:00;101652.00;;;9.18
65765;BMP180;52915;53.718;19.946;2023-05-19T01:07:06;101650.80;;;9.20
65765;BMP180;52915;53.718;19.946;2023-05-19T01:12:35;101653.20;;;9.20
65765;BMP180;52915;53.718;19.946;2023-05-19T01:18:10;101653.60;;;9.20
65765;BMP180;52915;53.718;19.946;2023-05-19T01:23:51;101654.40;;;9.10
65765;BMP180;52915;53.718;19.946;2023-05-19T01:29:35;101654.80;;;9.10
65765;BMP180;52915;53.718;19.946;2023-05-19T01:41:36;101651.00;;;9.20
65765;BMP180;52915;53.718;19.946;2023-05-19T01:47:21;101649.60;;;9.20
65765;BMP180;52915;53.718;19.946;2023-05-19T01:52:25;101647.40;;;9.16
65765;BMP180;52915;53.718;19.946;2023-05-19T02:03:29;101651.80;;;9.20
65765;BMP180;52915;53.718;19.946;2023-05-19T02:15:37;101654.20;;;9.20
65765;BMP180;52915;53.718;19.946;2023-05-19T02:21:33;101660.60;;;9.36
65765;BMP180;52915;53.718;19.946;2023-05-19T02:26:36;101657.60;;;9.50
65765;BMP180;52915;53.718;19.946;2023-05-19T02:32:06;101660.80;;;9.50
65765;BMP180;52915;53.718;19.946;2023-05-19T02:37:14;101664.60;;;9.40
65765;BMP180;52915;53.718;19.946;2023-05-19T02:42:19;101664.80;;;9.30
65765;BMP180;52915;53.718;19.946;2023-05-19T02:53:55;101658.00;;;9.10
65765;BMP180;52915;53.718;19.946;2023-05-19T02:59:01;101659.00;;;9.10
65765;BMP180;52915;53.718;19.946;2023-05-19T03:04:30;101661.40;;;9.20
65765;BMP180;52915;53.718;19.946;2023-05-19T03:16:27;101659.20;;;9.40
65765;BMP180;52915;53.718;19.946;2023-05-19T03:28:17;101656.00;;;9.30
65765;BMP180;52915;53.718;19.946;2023-05-19T03:45:47;101655.00;;;9.50
65765;BMP180;52915;53.718;19.946;2023-05-19T03:57:16;101658.60;;;9.80
65765;BMP180;52915;53.718;19.946;2023-05-19T04:08:46;101657.40;;;10.20
65765;BMP180;52915;53.718;19.946;2023-05-19T04:13:49;101655.20;;;10.20
65765;BMP180;52915;53.718;19.946;2023-05-19T04:18:58;101654.60;;;10.20
65765;BMP180;52915;53.718;19.946;2023-05-19T04:32:27;101654.80;;;10.30
65765;BMP180;52915;53.718;19.946;2023-05-19T04:48:25;101668.60;;;10.76
65765;BMP180;52915;53.718;19.946;2023-05-19T04:53:55;101665.80;;;10.80
65765;BMP180;52915;53.718;19.946;2023-05-19T04:58:58;101669.60;;;11.02
65765;BMP180;52915;53.718;19.946;2023-05-19T05:04:06;101675.20;;;11.10
65765;BMP180;52915;53.718;19.946;2023-05-19T05:09:16;101675.60;;;11.10
65765;BMP180;52915;53.718;19.946;2023-05-19T05:15:11;101681.40;;;11.10
65765;BMP180;52915;53.718;19.946;2023-05-19T05:20:38;101678.20;;;11.16
65765;BMP180;52915;53.718;19.946;2023-05-19T05:32:09;101674.40;;;11.40
65765;BMP180;52915;53.718;19.946;2023-05-19T05:37:42;101678.00;;;11.50
65765;BMP180;52915;53.718;19.946;2023-05-19T05:43:12;101677.80;;;11.70
65765;BMP180;52915;53.718;19.946;2023-05-19T05:48:16;101680.20;;;11.84
65765;BMP180;52915;53.718;19.946;2023-05-19T05:59:40;101682.20;;;12.28
65765;BMP180;52915;53.718;19.946;2023-05-19T06:05:22;101681.40;;;12.40
65765;BMP180;52915;53.718;19.946;2023-05-19T06:10:27;101681.40;;;12.50
65765;BMP180;52915;53.718;19.946;2023-05-19T06:15:53;101691.40;;;12.60
65765;BMP180;52915;53.718;19.946;2023-05-19T06:21:23;101686.40;;;12.70
65765;BMP180;52915;53.718;19.946;2023-05-19T06:26:45;101685.60;;;12.80
65765;BMP180;52915;53.718;19.946;2023-05-19T06:32:14;101687.20;;;13.10
65765;BMP180;52915;53.718;19.946;2023-05-19T06:45:15;101687.80;;;13.50
65765;BMP180;52915;53.718;19.946;2023-05-19T06:50:44;101688.80;;;13.70
65765;BMP180;52915;53.718;19.946;2023-05-19T06:56:39;101687.40;;;13.90
65765;BMP180;52915;53.718;19.946;2023-05-19T07:01:45;101689.20;;;14.10
65765;BMP180;52915;53.718;19.946;2023-05-19T07:07:15;101693.00;;;14.30
65765;BMP180;52915;53.718;19.946;2023-05-19T07:19:09;101695.20;;;14.80
65765;BMP180;52915;53.718;19.946;2023-05-19T07:25:05;101704.40;;;15.00
65765;BMP180;52915;53.718;19.946;2023-05-19T07:30:16;101708.40;;;15.30
65765;BMP180;52915;53.718;19.946;2023-05-19T07:35:45;101709.00;;;15.48
65765;BMP180;52915;53.718;19.946;2023-05-19T07:41:41;101711.60;;;15.70
65765;BMP180;52915;53.718;19.946;2023-05-19T07:46:45;101713.00;;;15.78
65765;BMP180;52915;53.718;19.946;2023-05-19T07:51:49;101719.80;;;15.78
65765;BMP180;52915;53.718;19.946;2023-05-19T07:57:18;101727.40;;;15.80
65765;BMP180;52915;53.718;19.946;2023-05-19T08:02:40;101723.40;;;15.92
65765;BMP180;52915;53.718;19.946;2023-05-19T08:08:35;101725.00;;;16.10
65765;BMP180;52915;53.718;19.946;2023-05-19T08:13:56;101720.20;;;16.20
65765;BMP180;52915;53.718;19.946;2023-05-19T08:19:01;101716.80;;;16.50
65765;BMP180;52915;53.718;19.946;2023-05-19T08:24:32;101715.20;;;16.62
65765;BMP180;52915;53.718;19.946;2023-05-19T08:30:01;101713.40;;;16.60
65765;BMP180;52915;53.718;19.946;2023-05-19T08:35:33;101709.20;;;16.40
65765;BMP180;52915;53.718;19.946;2023-05-19T08:47:06;101712.80;;;16.30
65765;BMP180;52915;53.718;19.946;2023-05-19T08:52:46;101712.20;;;16.20
65765;BMP180;52915;53.718;19.946;2023-05-19T08:58:49;101716.60;;;16.20
65765;BMP180;52915;53.718;19.946;2023-05-19T09:10:58;101718.60;;;16.62
65765;BMP180;52915;53.718;19.946;2023-05-19T09:16:44;101716.20;;;16.88
65765;BMP180;52915;53.718;19.946;2023-05-19T09:22:01;101716.00;;;17.10
65765;BMP180;52915;53.718;19.946;2023-05-19T09:27:22;101714.60;;;17.38
65765;BMP180;52915;53.718;19.946;2023-05-19T09:32:26;101715.40;;;17.40
65765;BMP180;52915;53.718;19.946;2023-05-19T09:37:30;101714.80;;;17.48
65765;BMP180;52915;53.718;19.946;2023-05-19T09:49:25;101717.00;;;17.02
65765;BMP180;52915;53.718;19.946;2023-05-19T09:54:33;101709.40;;;17.00
65765;BMP180;52915;53.718;19.946;2023-05-19T10:00:28;101708.40;;;17.12
65765;BMP180;52915;53.718;19.946;2023-05-19T10:05:34;101706.80;;;17.34
65765;BMP180;52915;53.718;19.946;2023-05-19T10:11:29;101704.60;;;17.40
65765;BMP180;52915;53.718;19.946;2023-05-19T10:17:09;101707.00;;;17.48
65765;BMP180;52915;53.718;19.946;2023-05-19T10:22:42;101711.40;;;17.50
65765;BMP180;52915;53.718;19.946;2023-05-19T10:28:21;101704.40;;;17.40
65765;BMP180;52915;53.718;19.946;2023-05-19T10:39:32;101715.80;;;17.10
65765;BMP180;52915;53.718;19.946;2023-05-19T10:45:33;101709.60;;;17.00
65765;BMP180;52915;53.718;19.946;2023-05-19T10:50:39;101706.80;;;16.92
65765;BMP180;52915;53.718;19.946;2023-05-19T10:56:08;101715.20;;;16.80
65765;BMP180;52915;53.718;19.946;2023-05-19T11:01:35;101715.20;;;16.60
65765;BMP180;52915;53.718;19.946;2023-05-19T11:13:59;101723.40;;;16.30
65765;BMP180;52915;53.718;19.946;2023-05-19T11:19:05;101724.20;;;16.20
65765;BMP180;52915;53.718;19.946;2023-05-19T11:36:13;101701.60;;;16.40
65765;BMP180;52915;53.718;19.946;2023-05-19T11:41:45;101695.00;;;16.50
65765;BMP180;52915;53.718;19.946;2023-05-19T11:53:04;101709.40;;;16.32
65765;BMP180;52915;53.718;19.946;2023-05-19T11:58:36;101719.00;;;16.30
65765;BMP180;52915;53.718;19.946;2023-05-19T12:04:47;101719.80;;;16.02
65765;BMP180;52915;53.718;19.946;2023-05-19T12:33:07;101716.20;;;15.60
65765;BMP180;52915;53.718;19.946;2023-05-19T12:38:13;101722.80;;;15.40
65765;BMP180;52915;53.718;19.946;2023-05-19T12:49:56;101722.60;;;15.30
65765;BMP180;52915;53.718;19.946;2023-05-19T12:55:10;101721.40;;;15.40
65765;BMP180;52915;53.718;19.946;2023-05-19T13:00:44;101722.80;;;15.40
65765;BMP180;52915;53.718;19.946;2023-05-19T13:06:10;101730.80;;;15.20
65765;BMP180;52915;53.718;19.946;2023-05-19T13:11:40;101722.20;;;15.00
65765;BMP180;52915;53.718;19.946;2023-05-19T13:16:50;101718.40;;;14.70
65765;BMP180;52915;53.718;19.946;2023-05-19T13:22:20;101701.60;;;14.70
65765;BMP180;52915;53.718;19.946;2023-05-19T13:41:41;101680.80;;;14.94
65765;BMP180;52915;53.718;19.946;2023-05-19T13:46:45;101680.60;;;14.80
65765;BMP180;52915;53.718;19.946;2023-05-19T14:07:58;101698.60;;;13.92
65765;BMP180;52915;53.718;19.946;2023-05-19T14:13:03;101702.20;;;13.90
65765;BMP180;52915;53.718;19.946;2023-05-19T14:18:27;101699.20;;;14.00
65765;BMP180;52915;53.718;19.946;2023-05-19T14:24:21;101683.60;;;14.20
65765;BMP180;52915;53.718;19.946;2023-05-19T14:29:25;101675.40;;;14.32
65765;BMP180;52915;53.718;19.946;2023-05-19T14:55:11;101667.60;;;15.00
65765;BMP180;52915;53.718;19.946;2023-05-19T15:14:11;101674.80;;;14.70
65765;BMP180;52915;53.718;19.946;2023-05-19T15:19:15;101673.20;;;14.60
65765;BMP180;52915;53.718;19.946;2023-05-19T15:24:19;101664.60;;;14.70
65765;BMP180;52915;53.718;19.946;2023-05-19T15:37:10;101649.20;;;14.80
65765;BMP180;52915;53.718;19.946;2023-05-19T15:58:02;101646.20;;;14.60
65765;BMP180;52915;53.718;19.946;2023-05-19T16:03:06;101649.20;;;14.60
65765;BMP180;52915;53.718;19.946;2023-05-19T16:18:20;101642.20;;;14.40
65765;BMP180;52915;53.718;19.946;2023-05-19T16:23:42;101649.20;;;14.30
65765;BMP180;52915;53.718;19.946;2023-05-19T16:28:47;101646.80;;;14.10
65765;BMP180;52915;53.718;19.946;2023-05-19T16:33:51;101644.80;;;14.10
65765;BMP180;52915;53.718;19.946;2023-05-19T16:38:55;101650.20;;;14.20
65765;BMP180;52915;53.718;19.946;2023-05-19T16:43:59;101650.00;;;14.26
65765;BMP180;52915;53.718;19.946;2023-05-19T16:49:55;101652.20;;;14.20
65765;BMP180;52915;53.718;19.946;2023-05-19T16:54:59;101649.60;;;14.08
65765;BMP180;52915;53.718;19.946;2023-05-19T17:00:04;101648.80;;;13.96
65765;BMP180;52915;53.718;19.946;2023-05-19T17:05:51;101646.40;;;13.90
65765;BMP180;52915;53.718;19.946;2023-05-19T17:11:47;101646.80;;;13.88
65765;BMP180;52915;53.718;19.946;2023-05-19T17:23:47;101641.80;;;14.00
65765;BMP180;52915;53.718;19.946;2023-05-19T17:28:53;101634.60;;;14.00
65765;BMP180;52915;53.718;19.946;2023-05-19T17:34:00;101642.80;;;13.90
65765;BMP180;52915;53.718;19.946;2023-05-19T17:39:30;101641.00;;;13.80
65765;BMP180;52915;53.718;19.946;2023-05-19T17:44:39;101643.80;;;13.70
65765;BMP180;52915;53.718;19.946;2023-05-19T17:56:50;101647.60;;;13.70
65765;BMP180;52915;53.718;19.946;2023-05-19T18:09:06;101651.20;;;13.60
65765;BMP180;52915;53.718;19.946;2023-05-19T18:14:13;101647.40;;;13.54
65765;BMP180;52915;53.718;19.946;2023-05-19T18:19:18;101648.40;;;13.50
65765;BMP180;52915;53.718;19.946;2023-05-19T18:24:22;101642.80;;;13.40
65765;BMP180;52915;53.718;19.946;2023-05-19T18:29:26;101643.20;;;13.50
65765;BMP180;52915;53.718;19.946;2023-05-19T18:34:30;101646.40;;;13.50
65765;BMP180;52915;53.718;19.946;2023-05-19T18:39:36;101654.20;;;13.40
65765;BMP180;52915;53.718;19.946;2023-05-19T18:44:42;101656.40;;;13.30
65765;BMP180;52915;53.718;19.946;2023-05-19T18:49:50;101656.20;;;13.30
65765;BMP180;52915;53.718;19.946;2023-05-19T18:54:54;101658.40;;;13.20
65765;BMP180;52915;53.718;19.946;2023-05-19T18:59:59;101659.60;;;13.20
65765;BMP180;52915;53.718;19.946;2023-05-19T19:05:04;101657.80;;;13.30
65765;BMP180;52915;53.718;19.946;2023-05-19T19:10:12;101658.80;;;13.20
65765;BMP180;52915;53.718;19.946;2023-05-19T19:15:19;101657.60;;;13.10
65765;BMP180;52915;53.718;19.946;2023-05-19T19:20:24;101664.40;;;13.10
65765;BMP180;52915;53.718;19.946;2023-05-19T19:25:33;101666.80;;;13.10
65765;BMP180;52915;53.718;19.946;2023-05-19T19:30:40;101665.00;;;13.10
65765;BMP180;52915;53.718;19.946;2023-05-19T19:35:47;101671.60;;;13.20
65765;BMP180;52915;53.718;19.946;2023-05-19T19:40:52;101676.20;;;13.20
65765;BMP180;52915;53.718;19.946;2023-05-19T19:46:02;101675.80;;;13.12
65765;BMP180;52915;53.718;19.946;2023-05-19T19:51:11;101676.60;;;13.10
65765;BMP180;52915;53.718;19.946;2023-05-19T19:56:18;101673.00;;;13.10
65765;BMP180;52915;53.718;19.946;2023-05-19T20:01:22;101675.60;;;13.20
65765;BMP180;52915;53.718;19.946;2023-05-19T20:06:30;101681.20;;;13.30
65765;BMP180;52915;53.718;19.946;2023-05-19T20:12:24;101684.40;;;13.30
65765;BMP180;52915;53.718;19.946;2023-05-19T20:17:33;101678.20;;;13.20
65765;BMP180;52915;53.718;19.946;2023-05-19T20:22:40;101677.40;;;13.10
65765;BMP180;52915;53.718;19.946;2023-05-19T20:28:39;101674.60;;;13.00
65765;BMP180;52915;53.718;19.946;2023-05-19T20:33:51;101681.20;;;13.20
65765;BMP180;52915;53.718;19.946;2023-05-19T20:38:56;101682.20;;;13.20
65765;BMP180;52915;53.718;19.946;2023-05-19T20:44:02;101684.40;;;13.20
65765;BMP180;52915;53.718;19.946;2023-05-19T20:49:08;101684.20;;;13.16
65765;BMP180;52915;53.718;19.946;2023-05-19T20:54:38;101677.40;;;13.02
65765;BMP180;52915;53.718;19.946;2023-05-19T20:59:52;101671.40;;;13.10
65765;BMP180;52915;53.718;19.946;2023-05-19T21:05:55;101669.60;;;13.20
65765;BMP180;52915;53.718;19.946;2023-05-19T21:11:49;101665.60;;;13.10
65765;BMP180;52915;53.718;19.946;2023-05-19T21:24:17;101666.20;;;13.00
65765;BMP180;52915;53.718;19.946;2023-05-19T21:29:21;101669.60;;;13.10
65765;BMP180;52915;53.718;19.946;2023-05-19T21:35:15;101664.40;;;13.10
65765;BMP180;52915;53.718;19.946;2023-05-19T21:40:20;101668.00;;;13.00
65765;BMP180;52915;53.718;19.946;2023-05-19T22:00:07;101670.20;;;13.00
65765;BMP180;52915;53.718;19.946;2023-05-19T22:05:55;101673.80;;;13.00
65765;BMP180;52915;53.718;19.946;2023-05-19T22:11:34;101671.60;;;13.00
65765;BMP180;52915;53.718;19.946;2023-05-19T22:16:45;101668.80;;;13.00
65765;BMP180;52915;53.718;19.946;2023-05-19T22:21:50;101661.60;;;12.98
65765;BMP180;52915;53.718;19.946;2023-05-19T22:27:08;101658.60;;;12.90
65765;BMP180;52915;53.718;19.946;2023-05-19T22:32:12;101665.00;;;12.90
65765;BMP180;52915;53.718;19.946;2023-05-19T22:37:21;101666.80;;;12.90
65765;BMP180;52915;53.718;19.946;2023-05-19T22:42:26;101669.00;;;12.90
65765;BMP180;52915;53.718;19.946;2023-05-19T22:47:30;101670.80;;;12.94
65765;BMP180;52915;53.718;19.946;2023-05-19T23:06:54;101671.60;;;12.70
65765;BMP180;52915;53.718;19.946;2023-05-19T23:11:58;101669.00;;;12.80
65765;BMP180;52915;53.718;19.946;2023-05-19T23:17:02;101666.40;;;12.80
65765;BMP180;52915;53.718;19.946;2023-05-19T23:22:06;101662.20;;;12.90
65765;BMP180;52915;53.718;19.946;2023-05-19T23:27:12;101667.40;;;13.10
65765;BMP180;52915;53.718;19.946;2023-05-19T23:32:41;101660.60;;;13.10
65765;BMP180;52915;53.718;19.946;2023-05-19T23:37:45;101656.60;;;13.00
65765;BMP180;52915;53.718;19.946;2023-05-19T23:43:13;101660.40;;;12.90
65765;BMP180;52915;53.718;19.946;2023-05-19T23:48:17;101659.20;;;12.80
65765;BMP180;52915;53.718;19.946;2023-05-19T23:53:21;101665.40;;;12.90
65765;BMP180;52915;53.718;19.946;2023-05-19T23:58:25;101664.40;;;13.10
